createdAt,value
2019-02-05T00:02:08.070Z,3.81
2019-02-05T00:04:35.573Z,3.44
2019-02-05T00:07:03.360Z,3.36
2019-02-05T00:09:30.943Z,3.40
2019-02-05T00:11:58.904Z,3.16
2019-02-05T00:14:26.363Z,3.41
2019-02-05T00:16:53.923Z,3.51
2019-02-05T00:19:21.405Z,3.54
2019-02-05T00:21:48.911Z,3.53
2019-02-05T00:24:17.204Z,3.31
2019-02-05T00:26:44.682Z,3.42
2019-02-05T00:29:12.180Z,3.38
2019-02-05T00:31:39.660Z,3.70
2019-02-05T00:34:07.141Z,3.48
2019-02-05T00:36:34.641Z,3.66
2019-02-05T00:39:02.146Z,3.43
2019-02-05T00:41:29.611Z,3.65
2019-02-05T00:43:57.085Z,3.06
2019-02-05T00:46:25.247Z,2.84
2019-02-05T00:48:52.886Z,3.48
2019-02-05T00:51:20.423Z,3.06
2019-02-05T00:53:48.074Z,3.33
2019-02-05T00:56:17.599Z,3.42
2019-02-05T00:58:43.192Z,3.24
2019-02-05T01:01:15.317Z,3.63
2019-02-05T01:03:40.140Z,3.50
2019-02-05T01:06:07.597Z,3.03
2019-02-05T01:08:35.272Z,3.26
2019-02-05T01:11:02.733Z,3.64
2019-02-05T01:13:30.237Z,3.13
2019-02-05T01:15:57.790Z,3.52
2019-02-05T01:18:25.286Z,3.26
2019-02-05T01:20:52.844Z,3.21
2019-02-05T01:23:20.394Z,3.33
2019-02-05T01:25:47.964Z,3.51
2019-02-05T01:28:15.415Z,3.49
2019-02-05T01:30:42.882Z,3.39
2019-02-05T01:33:10.466Z,3.46
2019-02-05T01:35:37.940Z,3.73
2019-02-05T01:38:05.431Z,3.69
2019-02-05T01:40:32.944Z,3.71
2019-02-05T01:43:00.452Z,3.49
2019-02-05T01:45:27.967Z,3.69
2019-02-05T01:47:55.590Z,3.94
2019-02-05T01:50:24.011Z,3.55
2019-02-05T01:52:51.540Z,3.96
2019-02-05T01:55:19.110Z,3.50
2019-02-05T01:57:47.462Z,3.51
2019-02-05T02:00:18.616Z,3.86
2019-02-05T02:02:46.107Z,4.06
2019-02-05T02:05:13.574Z,4.02
2019-02-05T02:07:41.107Z,3.65
2019-02-05T02:10:09.394Z,3.72
2019-02-05T02:12:36.924Z,3.81
2019-02-05T02:15:04.424Z,3.54
2019-02-05T02:17:31.935Z,3.76
2019-02-05T02:19:59.482Z,3.74
2019-02-05T02:22:26.941Z,3.79
2019-02-05T02:24:54.452Z,3.56
2019-02-05T02:27:21.888Z,3.68
2019-02-05T02:29:49.419Z,3.95
2019-02-05T02:32:16.867Z,3.85
2019-02-05T02:34:44.325Z,3.71
2019-02-05T02:37:11.772Z,3.89
2019-02-05T02:39:39.255Z,3.96
2019-02-05T02:42:06.739Z,3.64
2019-02-05T02:44:34.262Z,3.76
2019-02-05T02:47:01.726Z,3.46
2019-02-05T02:49:29.169Z,3.64
2019-02-05T02:51:56.621Z,3.79
2019-02-05T02:54:24.110Z,3.23
2019-02-05T02:57:04.221Z,3.12
2019-02-05T02:59:19.116Z,3.56
2019-02-05T03:01:46.596Z,3.27
2019-02-05T03:04:14.121Z,3.11
2019-02-05T03:06:41.588Z,3.69
2019-02-05T03:09:09.066Z,3.77
2019-02-05T03:11:36.563Z,3.67
2019-02-05T03:14:04.028Z,3.48
2019-02-05T03:16:31.525Z,3.61
2019-02-05T03:18:59.030Z,3.65
2019-02-05T03:21:27.063Z,3.79
2019-02-05T03:23:54.550Z,3.64
2019-02-05T03:26:22.045Z,3.42
2019-02-05T03:28:49.580Z,3.47
2019-02-05T03:31:17.052Z,3.33
2019-02-05T03:33:44.530Z,3.61
2019-02-05T03:36:12.032Z,3.57
2019-02-05T03:38:39.491Z,3.56
2019-02-05T03:41:06.970Z,3.63
2019-02-05T03:43:34.452Z,3.40
2019-02-05T03:46:01.961Z,3.15
2019-02-05T03:48:29.478Z,3.38
2019-02-05T03:50:59.538Z,3.38
2019-02-05T03:53:31.590Z,3.36
2019-02-05T03:56:02.051Z,3.35
2019-02-05T03:58:41.241Z,2.97
2019-02-05T04:01:11.124Z,3.21
2019-02-05T04:03:40.418Z,3.26
2019-02-05T04:06:33.831Z,3.39
2019-02-05T04:09:21.008Z,3.42
2019-02-05T04:12:05.990Z,3.40
2019-02-05T04:14:37.955Z,3.26
2019-02-05T04:17:23.890Z,3.29
2019-02-05T04:19:57.260Z,3.44
2019-02-05T04:22:46.408Z,3.70
2019-02-05T04:25:29.724Z,3.42
2019-02-05T04:27:58.963Z,3.54
2019-02-05T04:30:36.993Z,3.35
2019-02-05T04:36:20.579Z,3.34
2019-02-05T04:38:54.563Z,3.39
2019-02-05T04:41:37.744Z,3.51
2019-02-05T04:44:25.561Z,3.20
2019-02-05T04:47:26.660Z,3.24
2019-02-05T04:49:58.954Z,3.35
2019-02-05T04:52:41.143Z,3.20
2019-02-05T04:55:17.395Z,2.89
2019-02-05T04:57:57.999Z,3.38
2019-02-05T05:00:23.685Z,3.31
2019-02-05T05:03:01.896Z,3.54
2019-02-05T05:05:43.923Z,3.44
2019-02-05T05:08:17.858Z,3.26
2019-02-05T05:10:45.328Z,3.29
2019-02-05T05:13:13.577Z,3.51
2019-02-05T05:15:41.095Z,3.21
2019-02-05T05:18:08.611Z,2.92
2019-02-05T05:20:36.129Z,3.37
2019-02-05T05:23:03.587Z,3.19
2019-02-05T05:25:31.106Z,3.14
2019-02-05T05:28:09.769Z,3.08
2019-02-05T05:30:27.064Z,3.32
2019-02-05T05:32:54.565Z,3.17
2019-02-05T05:35:22.054Z,3.24
2019-02-05T05:37:49.520Z,3.18
2019-02-05T05:40:17.010Z,2.96
2019-02-05T05:42:44.496Z,3.02
2019-02-05T05:45:12.002Z,2.88
2019-02-05T05:47:39.554Z,2.96
2019-02-05T05:50:07.105Z,3.14
2019-02-05T05:52:36.292Z,2.97
2019-02-05T05:55:03.804Z,2.98
2019-02-05T05:57:31.334Z,3.00
2019-02-05T05:59:58.788Z,2.75
2019-02-05T06:02:26.276Z,3.00
2019-02-05T06:04:53.738Z,2.91
2019-02-05T06:07:21.294Z,2.88
2019-02-05T06:09:48.762Z,3.02
2019-02-05T06:12:16.270Z,2.86
2019-02-05T06:14:45.673Z,3.00
2019-02-05T06:17:13.285Z,2.93
2019-02-05T06:19:40.770Z,2.97
2019-02-05T06:22:08.252Z,2.81
2019-02-05T06:24:35.746Z,3.04
2019-02-05T06:27:03.222Z,3.06
2019-02-05T06:29:30.671Z,3.40
2019-02-05T06:31:58.144Z,3.30
2019-02-05T06:34:25.653Z,3.18
2019-02-05T06:36:53.095Z,3.23
2019-02-05T06:39:20.578Z,3.41
2019-02-05T06:41:48.062Z,3.10
2019-02-05T06:44:15.560Z,3.43
2019-02-05T06:46:43.136Z,3.33
2019-02-05T06:49:10.634Z,3.51
2019-02-05T06:51:38.091Z,3.37
2019-02-05T06:54:05.610Z,3.15
2019-02-05T06:56:33.076Z,3.49
2019-02-05T06:59:00.601Z,3.15
2019-02-05T07:01:28.146Z,3.55
2019-02-05T07:03:55.655Z,3.67
2019-02-05T07:06:23.157Z,3.17
2019-02-05T07:08:50.708Z,3.43
2019-02-05T07:11:19.718Z,3.56
2019-02-05T07:13:47.253Z,3.67
2019-02-05T07:16:14.773Z,3.40
2019-02-05T07:18:42.284Z,3.57
2019-02-05T07:21:09.861Z,3.14
2019-02-05T07:23:37.370Z,3.41
2019-02-05T07:26:05.003Z,3.34
2019-02-05T07:28:32.497Z,3.15
2019-02-05T07:31:00.015Z,3.22
2019-02-05T07:33:27.558Z,3.50
2019-02-05T07:35:55.216Z,3.28
2019-02-05T07:38:22.764Z,3.50
2019-02-05T07:40:50.328Z,3.16
2019-02-05T07:43:17.896Z,3.21
2019-02-05T07:45:46.445Z,3.28
2019-02-05T07:48:13.974Z,3.32
2019-02-05T07:50:41.502Z,3.33
2019-02-05T07:53:09.066Z,3.22
2019-02-05T07:55:36.631Z,3.26
2019-02-05T07:58:04.196Z,3.49
2019-02-05T08:00:31.731Z,3.14
2019-02-05T08:02:59.290Z,3.42
2019-02-05T08:05:27.680Z,3.39
2019-02-05T08:07:55.229Z,3.50
2019-02-05T08:10:22.814Z,3.18
2019-02-05T08:12:50.424Z,3.38
2019-02-05T08:15:19.860Z,3.22
2019-02-05T08:17:47.518Z,3.36
2019-02-05T08:20:15.732Z,3.34
2019-02-05T08:22:43.246Z,3.33
2019-02-05T08:25:11.678Z,3.38
2019-02-05T08:27:39.239Z,3.22
2019-02-05T08:30:06.808Z,3.18
2019-02-05T08:32:34.345Z,3.29
2019-02-05T08:35:01.909Z,3.24
2019-02-05T08:37:29.444Z,3.27
2019-02-05T08:39:57.061Z,3.03
2019-02-05T08:42:24.576Z,3.17
2019-02-05T08:44:52.098Z,3.11
2019-02-05T08:47:19.585Z,3.38
2019-02-05T08:49:47.653Z,3.31
2019-02-05T08:52:15.192Z,3.50
2019-02-05T08:54:42.773Z,3.29
2019-02-05T08:57:10.302Z,3.21
2019-02-05T08:59:37.838Z,3.52
2019-02-05T09:02:05.368Z,3.21
2019-02-05T09:04:32.882Z,3.39
2019-02-05T09:07:00.382Z,3.77
2019-02-05T09:09:28.026Z,3.65
2019-02-05T09:11:55.546Z,3.64
2019-02-05T09:14:23.078Z,4.04
2019-02-05T09:16:50.588Z,3.73
2019-02-05T09:19:18.246Z,3.70
2019-02-05T09:21:45.860Z,3.49
2019-02-05T09:24:15.275Z,3.73
2019-02-05T09:26:42.876Z,3.91
2019-02-05T09:29:10.403Z,3.70
2019-02-05T09:31:37.961Z,3.75
2019-02-05T09:34:05.470Z,3.90
2019-02-05T09:36:33.048Z,3.76
2019-02-05T09:39:00.544Z,3.73
2019-02-05T09:41:28.095Z,3.54
2019-02-05T09:43:55.700Z,3.67
2019-02-05T09:46:23.234Z,3.80
2019-02-05T09:48:50.751Z,3.72
2019-02-05T09:51:18.858Z,3.98
2019-02-05T09:53:46.365Z,3.73
2019-02-05T09:56:13.978Z,3.79
2019-02-05T09:58:41.494Z,4.02
2019-02-05T10:01:09.045Z,3.73
2019-02-05T10:03:36.586Z,3.77
2019-02-05T10:06:04.110Z,3.77
2019-02-05T10:08:31.650Z,3.70
2019-02-05T10:10:59.199Z,3.70
2019-02-05T10:13:26.792Z,3.83
2019-02-05T10:15:54.420Z,3.96
2019-02-05T10:18:21.878Z,3.80
2019-02-05T10:20:49.480Z,3.78
2019-02-05T10:23:17.000Z,3.91
2019-02-05T10:25:44.534Z,3.88
2019-02-05T10:28:12.098Z,3.97
2019-02-05T10:30:40.441Z,3.85
2019-02-05T10:33:07.955Z,3.86
2019-02-05T10:35:36.509Z,3.85
2019-02-05T10:38:04.127Z,3.97
2019-02-05T10:40:31.683Z,3.99
2019-02-05T10:42:59.219Z,4.26
2019-02-05T10:45:26.769Z,3.98
2019-02-05T10:47:54.274Z,4.14
2019-02-05T10:50:21.844Z,4.06
2019-02-05T10:52:50.022Z,3.95
2019-02-05T10:55:19.474Z,3.95
2019-02-05T10:57:48.100Z,4.16
2019-02-05T11:00:16.987Z,4.26
2019-02-05T11:02:44.530Z,4.22
2019-02-05T11:05:12.795Z,3.95
2019-02-05T11:07:40.357Z,4.00
2019-02-05T11:10:07.924Z,4.37
2019-02-05T11:12:35.450Z,4.35
2019-02-05T11:15:03.019Z,4.44
2019-02-05T11:17:30.564Z,4.03
2019-02-05T11:19:58.139Z,4.23
2019-02-05T11:22:25.655Z,4.43
2019-02-05T11:24:53.188Z,4.29
2019-02-05T11:27:20.706Z,4.42
2019-02-05T11:29:48.225Z,4.34
2019-02-05T11:32:15.745Z,4.40
2019-02-05T11:34:43.245Z,4.62
2019-02-05T11:37:10.757Z,4.26
2019-02-05T11:39:38.273Z,4.44
2019-02-05T11:42:05.793Z,4.58
2019-02-05T11:44:33.311Z,4.74
2019-02-05T11:47:03.813Z,4.63
2019-02-05T11:49:28.404Z,4.58
2019-02-05T11:51:55.932Z,4.60
2019-02-05T11:54:23.465Z,4.59
2019-02-05T11:56:51.570Z,4.33
2019-02-05T11:59:19.079Z,4.54
2019-02-05T12:01:46.594Z,4.66
2019-02-05T12:04:14.131Z,4.47
2019-02-05T12:06:41.705Z,4.53
2019-02-05T12:09:15.054Z,4.40
2019-02-05T12:11:42.595Z,4.27
2019-02-05T12:14:10.090Z,4.44
2019-02-05T12:16:38.519Z,4.46
2019-02-05T12:19:06.211Z,4.53
2019-02-05T12:21:33.754Z,4.57
2019-02-05T12:24:01.282Z,4.61
2019-02-05T12:26:28.862Z,4.79
2019-02-05T12:28:56.367Z,4.62
2019-02-05T12:31:23.898Z,4.35
2019-02-05T12:33:51.981Z,4.63
2019-02-05T12:36:19.584Z,4.67
2019-02-05T12:38:47.142Z,4.81
2019-02-05T12:41:14.761Z,4.76
2019-02-05T12:43:42.273Z,4.76
2019-02-05T12:46:09.879Z,4.74
2019-02-05T12:48:37.429Z,4.78
2019-02-05T12:51:05.011Z,4.81
2019-02-05T12:53:32.544Z,4.69
2019-02-05T12:56:00.051Z,4.91
2019-02-05T12:58:27.561Z,4.86
2019-02-05T13:00:59.052Z,5.04
2019-02-05T13:03:22.666Z,4.86
2019-02-05T13:05:50.195Z,4.66
2019-02-05T13:08:17.693Z,4.55
2019-02-05T13:10:46.101Z,4.60
2019-02-05T13:13:13.588Z,4.61
2019-02-05T13:15:41.090Z,4.55
2019-02-05T13:18:08.637Z,4.38
2019-02-05T13:20:36.141Z,4.72
2019-02-05T13:23:03.685Z,4.46
2019-02-05T13:25:31.270Z,4.68
2019-02-05T13:27:58.865Z,4.70
2019-02-05T13:30:29.864Z,4.68
2019-02-05T13:32:57.375Z,5.01
2019-02-05T13:35:26.413Z,4.65
2019-02-05T13:37:54.063Z,4.72
2019-02-05T13:40:21.575Z,4.73
2019-02-05T13:42:49.130Z,4.87
2019-02-05T13:45:16.617Z,4.94
2019-02-05T13:47:44.179Z,5.00
2019-02-05T13:50:11.695Z,5.14
2019-02-05T13:52:39.253Z,4.79
2019-02-05T13:55:06.810Z,4.76
2019-02-05T13:57:35.229Z,4.56
2019-02-05T14:00:02.806Z,4.76
2019-02-05T14:02:30.343Z,4.68
2019-02-05T14:04:57.832Z,4.97
2019-02-05T14:07:25.373Z,5.09
2019-02-05T14:09:52.892Z,4.81
2019-02-05T14:12:21.956Z,4.82
2019-02-05T14:14:47.972Z,4.85
2019-02-05T14:17:15.560Z,4.95
2019-02-05T14:19:44.710Z,4.91
2019-02-05T14:22:12.211Z,5.06
2019-02-05T14:24:40.399Z,5.20
2019-02-05T14:27:07.908Z,5.31
2019-02-05T14:29:35.441Z,5.15
2019-02-05T14:32:02.971Z,5.34
2019-02-05T14:34:30.479Z,5.31
2019-02-05T14:36:57.980Z,4.95
2019-02-05T14:39:25.480Z,5.25
2019-02-05T14:41:53.005Z,5.23
2019-02-05T14:44:20.569Z,5.00
2019-02-05T14:46:48.146Z,5.40
2019-02-05T14:49:15.639Z,5.65
2019-02-05T14:51:43.147Z,5.28
2019-02-05T14:54:10.772Z,5.29
2019-02-05T14:56:38.307Z,5.18
2019-02-05T14:59:05.827Z,5.09
2019-02-05T15:01:42.852Z,5.19
2019-02-05T15:04:00.944Z,5.51
2019-02-05T15:06:28.459Z,5.70
2019-02-05T15:08:55.953Z,5.81
2019-02-05T15:11:23.487Z,5.76
2019-02-05T15:13:51.002Z,5.73
2019-02-05T15:16:18.503Z,5.88
2019-02-05T15:18:46.009Z,5.90
2019-02-05T15:21:13.598Z,5.42
2019-02-05T15:23:41.151Z,5.73
2019-02-05T15:26:08.718Z,5.80
2019-02-05T15:28:36.210Z,5.43
2019-02-05T15:31:03.796Z,5.09
2019-02-05T15:33:32.723Z,5.18
2019-02-05T15:36:00.608Z,5.23
2019-02-05T15:38:28.214Z,5.59
2019-02-05T15:40:55.761Z,5.84
2019-02-05T15:43:23.317Z,5.82
2019-02-05T15:45:50.807Z,5.58
2019-02-05T15:48:18.341Z,5.91
2019-02-05T15:50:45.854Z,5.80
2019-02-05T15:53:13.412Z,5.91
2019-02-05T15:55:41.497Z,6.08
2019-02-05T15:58:09.002Z,6.11
2019-02-05T16:00:36.550Z,5.75
2019-02-05T16:03:04.033Z,6.04
2019-02-05T16:05:31.598Z,5.83
2019-02-05T16:07:59.119Z,5.41
2019-02-05T16:10:26.596Z,5.76
2019-02-05T16:12:54.137Z,5.80
2019-02-05T16:15:21.689Z,5.71
2019-02-05T16:17:49.239Z,5.80
2019-02-05T16:20:16.777Z,5.66
2019-02-05T16:22:44.277Z,5.80
2019-02-05T16:25:15.573Z,5.93
2019-02-05T16:27:43.128Z,5.91
2019-02-05T16:30:12.941Z,5.75
2019-02-05T16:32:39.882Z,5.84
2019-02-05T16:35:07.482Z,5.71
2019-02-05T16:37:35.032Z,5.90
2019-02-05T16:40:02.538Z,5.66
2019-02-05T16:42:30.080Z,5.61
2019-02-05T16:44:57.731Z,5.92
2019-02-05T16:47:25.216Z,5.78
2019-02-05T16:49:52.791Z,5.68
2019-02-05T16:52:20.337Z,5.53
2019-02-05T16:54:47.916Z,5.51
2019-02-05T16:57:15.437Z,5.50
2019-02-05T16:59:42.944Z,5.65
2019-02-05T17:02:10.470Z,5.59
2019-02-05T17:04:37.985Z,5.24
2019-02-05T17:07:05.530Z,5.69
2019-02-05T17:09:33.067Z,5.38
2019-02-05T17:12:00.573Z,5.54
2019-02-05T17:14:28.145Z,5.70
2019-02-05T17:16:55.683Z,5.43
2019-02-05T17:19:23.257Z,5.28
2019-02-05T17:21:50.781Z,5.72
2019-02-05T17:24:18.325Z,5.93
2019-02-05T17:26:45.880Z,5.52
2019-02-05T17:29:13.408Z,5.58
2019-02-05T17:31:40.927Z,5.65
2019-02-05T17:34:08.447Z,5.86
2019-02-05T17:36:36.050Z,5.81
2019-02-05T17:39:03.597Z,5.68
2019-02-05T17:41:31.166Z,5.67
2019-02-05T17:43:59.803Z,5.45
2019-02-05T17:46:28.331Z,5.59
2019-02-05T17:48:55.853Z,5.52
2019-02-05T17:51:23.385Z,5.65
2019-02-05T17:53:50.927Z,5.56
2019-02-05T17:56:18.467Z,5.28
2019-02-05T17:58:46.052Z,5.57
2019-02-05T18:01:13.554Z,5.85
2019-02-05T18:03:41.088Z,5.96
2019-02-05T18:06:08.690Z,5.96
2019-02-05T18:08:36.213Z,5.92
2019-02-05T18:11:03.694Z,6.00
2019-02-05T18:13:31.201Z,5.62
2019-02-05T18:15:58.886Z,5.92
2019-02-05T18:18:26.338Z,6.02
2019-02-05T18:20:53.962Z,5.90
2019-02-05T18:23:21.473Z,5.63
2019-02-05T18:25:49.048Z,5.55
2019-02-05T18:28:16.579Z,5.57
2019-02-05T18:30:44.146Z,5.42
2019-02-05T18:33:11.680Z,5.40
2019-02-05T18:35:39.214Z,5.08
2019-02-05T18:38:14.793Z,5.35
2019-02-05T18:40:42.346Z,5.52
2019-02-05T18:43:09.870Z,5.39
2019-02-05T18:45:37.424Z,5.29
2019-02-05T18:48:05.021Z,5.39
2019-02-05T18:50:32.575Z,4.97
2019-02-05T18:53:00.133Z,5.15
2019-02-05T18:55:30.221Z,5.25
2019-02-05T18:58:08.454Z,5.37
2019-02-05T19:00:28.628Z,5.27
2019-02-05T19:02:56.200Z,5.33
2019-02-05T19:05:23.775Z,5.58
2019-02-05T19:07:51.342Z,5.67
2019-02-05T19:10:19.471Z,5.61
2019-02-05T19:12:47.048Z,5.51
2019-02-05T19:15:17.304Z,5.62
2019-02-05T19:17:44.806Z,5.61
2019-02-05T19:20:12.376Z,5.65
2019-02-05T19:22:40.086Z,5.55
2019-02-05T19:25:07.767Z,5.32
2019-02-05T19:27:35.341Z,5.15
2019-02-05T19:30:02.945Z,5.38
2019-02-05T19:32:30.450Z,5.52
2019-02-05T19:34:57.952Z,5.39
2019-02-05T19:37:25.637Z,5.58
2019-02-05T19:39:53.270Z,5.54
2019-02-05T19:45:38.174Z,5.58
2019-02-05T19:48:05.756Z,5.59
2019-02-05T19:50:33.623Z,5.62
2019-02-05T19:53:01.233Z,5.67
2019-02-05T19:55:28.764Z,5.75
2019-02-05T19:57:56.404Z,5.72
2019-02-05T20:00:23.915Z,5.68
2019-02-05T20:02:51.490Z,5.71
2019-02-05T20:05:19.042Z,5.64
2019-02-05T20:07:47.258Z,5.69
2019-02-05T20:10:14.826Z,5.49
2019-02-05T20:12:42.414Z,5.37
2019-02-05T20:15:10.677Z,5.44
2019-02-05T20:17:38.219Z,5.40
2019-02-05T20:20:07.346Z,5.51
2019-02-05T20:22:34.850Z,5.44
2019-02-05T20:25:02.377Z,5.31
2019-02-05T20:27:29.939Z,5.22
2019-02-05T20:29:57.576Z,5.39
2019-02-05T20:32:28.142Z,5.29
2019-02-05T20:34:53.857Z,5.41
2019-02-05T20:37:21.391Z,5.37
2019-02-05T20:39:48.976Z,5.48
2019-02-05T20:42:16.503Z,5.32
2019-02-05T20:44:44.286Z,5.18
2019-02-05T20:47:11.830Z,5.43
2019-02-05T20:49:39.348Z,5.36
2019-02-05T20:52:06.858Z,5.30
2019-02-05T20:54:34.383Z,5.34
2019-02-05T20:57:01.917Z,5.33
2019-02-05T20:59:30.441Z,5.35
2019-02-05T21:01:56.988Z,5.40
2019-02-05T21:04:24.521Z,5.32
2019-02-05T21:06:52.048Z,5.12
2019-02-05T21:09:19.559Z,5.32
2019-02-05T21:11:47.143Z,5.26
2019-02-05T21:14:14.663Z,5.44
2019-02-05T21:16:42.200Z,5.38
2019-02-05T21:19:10.611Z,5.47
2019-02-05T21:21:38.240Z,5.41
2019-02-05T21:24:05.761Z,5.49
2019-02-05T21:26:33.378Z,5.45
2019-02-05T21:29:00.864Z,5.46
2019-02-05T21:31:28.476Z,5.39
2019-02-05T21:33:55.976Z,5.41
2019-02-05T21:36:23.556Z,5.27
2019-02-05T21:38:51.065Z,5.18
2019-02-05T21:41:18.606Z,5.10
2019-02-05T21:43:46.130Z,5.03
2019-02-05T21:46:13.656Z,5.10
2019-02-05T21:48:41.189Z,5.13
2019-02-05T21:51:08.769Z,5.12
2019-02-05T21:53:36.316Z,5.08
2019-02-05T21:56:03.828Z,5.04
2019-02-05T21:58:31.337Z,5.03
2019-02-05T22:00:58.851Z,4.95
2019-02-05T22:03:26.419Z,4.99
2019-02-05T22:05:53.991Z,4.66
2019-02-05T22:08:21.580Z,4.88
2019-02-05T22:10:49.109Z,4.82
2019-02-05T22:13:16.705Z,4.59
2019-02-05T22:15:44.230Z,4.53
2019-02-05T22:18:11.830Z,4.67
2019-02-05T22:20:39.309Z,4.59
2019-02-05T22:23:06.875Z,4.65
2019-02-05T22:25:34.397Z,4.58
2019-02-05T22:28:01.938Z,4.67
2019-02-05T22:30:30.179Z,4.89
2019-02-05T22:32:57.716Z,4.78
2019-02-05T22:35:25.317Z,4.87
2019-02-05T22:37:52.872Z,4.67
2019-02-05T22:40:20.391Z,4.76
2019-02-05T22:42:47.957Z,4.92
2019-02-05T22:45:15.483Z,4.87
2019-02-05T22:47:42.997Z,4.96
2019-02-05T22:50:12.392Z,4.94
2019-02-05T22:52:39.989Z,5.01
2019-02-05T22:55:07.491Z,4.98
2019-02-05T22:57:35.025Z,4.90
2019-02-05T23:00:02.542Z,5.00
2019-02-05T23:02:30.099Z,4.30
2019-02-05T23:04:59.192Z,4.76
2019-02-05T23:07:26.731Z,4.85
2019-02-05T23:09:54.250Z,4.92
2019-02-05T23:12:21.782Z,4.93
2019-02-05T23:14:50.258Z,4.83
2019-02-05T23:17:17.744Z,4.63
2019-02-05T23:19:45.249Z,4.86
2019-02-05T23:22:12.754Z,4.81
2019-02-05T23:24:40.221Z,4.89
2019-02-05T23:27:07.701Z,4.66
2019-02-05T23:29:35.187Z,4.87
2019-02-05T23:32:02.681Z,4.45
2019-02-05T23:34:30.165Z,4.64
2019-02-05T23:36:57.651Z,4.65
2019-02-05T23:39:25.130Z,4.77
2019-02-05T23:41:52.624Z,4.83
2019-02-05T23:44:20.132Z,4.64
2019-02-05T23:46:47.655Z,4.78
2019-02-05T23:49:15.138Z,4.75
2019-02-05T23:51:43.280Z,4.97
2019-02-05T23:54:10.796Z,5.12
2019-02-05T23:56:38.311Z,5.05
2019-02-05T23:59:05.792Z,5.04
